sensor_id;sensor_type;location;lat;lon;timestamp;pressure;altitude;pressure_sealevel;temperature;humidity
22018;BME280;11173;51.050;7.108;2022-11-15T00:08:04;98898.41;;;9.53;66.77
22018;BME280;11173;51.050;7.108;2022-11-15T00:18:05;98894.44;;;9.70;66.97
22018;BME280;11173;51.050;7.108;2022-11-15T00:28:05;98872.88;;;9.74;63.87
22018;BME280;11173;51.050;7.108;2022-11-15T00:38:06;98894.78;;;10.05;63.89
22018;BME280;11173;51.050;7.108;2022-11-15T00:48:07;98884.50;;;10.19;62.80
22018;BME280;11173;51.050;7.108;2022-11-15T00:58:07;98881.03;;;10.31;62.74
22018;BME280;11173;51.050;7.108;2022-11-15T01:08:15;98880.13;;;10.50;62.93
22018;BME280;11173;51.050;7.108;2022-11-15T01:18:16;98868.25;;;10.63;62.76
22018;BME280;11173;51.050;7.108;2022-11-15T01:28:16;98862.28;;;10.77;62.67
22018;BME280;11173;51.050;7.108;2022-11-15T01:38:16;98862.97;;;10.81;62.47
22018;BME280;11173;51.050;7.108;2022-11-15T01:48:17;98860.75;;;10.89;62.04
22018;BME280;11173;51.050;7.108;2022-11-15T01:58:17;98844.06;;;10.89;62.34
22018;BME280;11173;51.050;7.108;2022-11-15T02:08:18;98837.38;;;10.99;62.22
22018;BME280;11173;51.050;7.108;2022-11-15T02:18:27;98824.56;;;11.02;62.87
22018;BME280;11173;51.050;7.108;2022-11-15T02:38:57;98793.78;;;10.92;64.85
22018;BME280;11173;51.050;7.108;2022-11-15T02:48:59;98797.59;;;10.99;62.94
22018;BME280;11173;51.050;7.108;2022-11-15T02:59:09;98794.56;;;11.06;63.72
22018;BME280;11173;51.050;7.108;2022-11-15T03:09:36;98786.22;;;11.06;63.36
22018;BME280;11173;51.050;7.108;2022-11-15T03:19:45;98771.59;;;11.02;63.52
22018;BME280;11173;51.050;7.108;2022-11-15T03:29:51;98776.75;;;11.03;63.57
22018;BME280;11173;51.050;7.108;2022-11-15T03:39:53;98777.50;;;11.04;63.98
22018;BME280;11173;51.050;7.108;2022-11-15T03:49:59;98778.41;;;11.13;63.17
22018;BME280;11173;51.050;7.108;2022-11-15T04:00:01;98768.16;;;11.10;63.16
22018;BME280;11173;51.050;7.108;2022-11-15T04:10:01;98771.53;;;11.18;62.23
22018;BME280;11173;51.050;7.108;2022-11-15T04:20:07;98768.59;;;11.22;62.68
22018;BME280;11173;51.050;7.108;2022-11-15T04:30:27;98766.03;;;11.27;62.69
22018;BME280;11173;51.050;7.108;2022-11-15T04:40:27;98759.31;;;11.38;62.49
22018;BME280;11173;51.050;7.108;2022-11-15T04:50:27;98758.44;;;11.41;62.30
22018;BME280;11173;51.050;7.108;2022-11-15T05:00:28;98754.75;;;11.44;62.30
22018;BME280;11173;51.050;7.108;2022-11-15T05:10:28;98756.09;;;11.39;62.32
22018;BME280;11173;51.050;7.108;2022-11-15T05:20:29;98763.59;;;11.42;61.97
22018;BME280;11173;51.050;7.108;2022-11-15T05:30:29;98769.72;;;11.37;62.19
22018;BME280;11173;51.050;7.108;2022-11-15T05:40:30;98774.19;;;11.34;62.40
22018;BME280;11173;51.050;7.108;2022-11-15T05:50:32;98764.56;;;11.35;62.36
22018;BME280;11173;51.050;7.108;2022-11-15T06:00:33;98751.22;;;11.30;63.76
22018;BME280;11173;51.050;7.108;2022-11-15T06:10:33;98770.63;;;11.34;62.05
22018;BME280;11173;51.050;7.108;2022-11-15T06:20:34;98783.41;;;11.06;60.90
22018;BME280;11173;51.050;7.108;2022-11-15T06:30:34;98786.56;;;10.53;61.74
22018;BME280;11173;51.050;7.108;2022-11-15T06:40:38;98793.88;;;10.18;62.35
22018;BME280;11173;51.050;7.108;2022-11-15T06:50:41;98803.84;;;9.86;62.01
22018;BME280;11173;51.050;7.108;2022-11-15T07:00:42;98807.53;;;9.66;62.24
22018;BME280;11173;51.050;7.108;2022-11-15T07:10:42;98813.94;;;9.47;62.92
22018;BME280;11173;51.050;7.108;2022-11-15T07:20:42;98817.41;;;9.34;62.89
22018;BME280;11173;51.050;7.108;2022-11-15T07:30:43;98818.53;;;9.21;63.08
22018;BME280;11173;51.050;7.108;2022-11-15T07:40:43;98835.19;;;9.21;63.31
22018;BME280;11173;51.050;7.108;2022-11-15T07:50:44;98829.00;;;9.13;63.31
22018;BME280;11173;51.050;7.108;2022-11-15T08:00:44;98851.78;;;9.24;63.61
22018;BME280;11173;51.050;7.108;2022-11-15T08:10:44;98848.69;;;9.39;63.58
22018;BME280;11173;51.050;7.108;2022-11-15T08:20:45;98842.63;;;9.60;63.96
22018;BME280;11173;51.050;7.108;2022-11-15T08:30:45;98843.47;;;9.90;63.53
22018;BME280;11173;51.050;7.108;2022-11-15T08:40:45;98836.69;;;10.07;63.33
22018;BME280;11173;51.050;7.108;2022-11-15T08:50:46;98830.41;;;10.20;62.99
22018;BME280;11173;51.050;7.108;2022-11-15T09:00:46;98827.38;;;10.30;63.25
22018;BME280;11173;51.050;7.108;2022-11-15T09:10:46;98804.28;;;10.46;63.11
22018;BME280;11173;51.050;7.108;2022-11-15T09:20:46;98798.97;;;10.65;62.96
22018;BME280;11173;51.050;7.108;2022-11-15T09:30:48;98804.13;;;10.79;62.67
22018;BME280;11173;51.050;7.108;2022-11-15T09:40:50;98788.66;;;10.91;62.25
22018;BME280;11173;51.050;7.108;2022-11-15T09:50:52;98789.13;;;11.02;62.26
22018;BME280;11173;51.050;7.108;2022-11-15T10:00:59;98758.47;;;11.15;61.63
22018;BME280;11173;51.050;7.108;2022-11-15T10:11:00;98742.19;;;11.26;61.78
22018;BME280;11173;51.050;7.108;2022-11-15T10:21:17;98717.06;;;11.39;61.58
22018;BME280;11173;51.050;7.108;2022-11-15T10:31:23;98715.59;;;11.47;60.97
22018;BME280;11173;51.050;7.108;2022-11-15T10:51:29;98701.78;;;11.57;60.23
22018;BME280;11173;51.050;7.108;2022-11-15T11:01:29;98686.91;;;11.60;59.67
22018;BME280;11173;51.050;7.108;2022-11-15T11:11:43;98667.38;;;11.60;59.56
22018;BME280;11173;51.050;7.108;2022-11-15T11:22:01;98659.03;;;11.60;58.95
22018;BME280;11173;51.050;7.108;2022-11-15T11:32:11;98650.84;;;11.65;58.85
22018;BME280;11173;51.050;7.108;2022-11-15T11:42:25;98639.47;;;11.72;58.85
22018;BME280;11173;51.050;7.108;2022-11-15T11:52:28;98632.38;;;11.81;58.38
22018;BME280;11173;51.050;7.108;2022-11-15T12:02:31;98620.31;;;11.84;58.40
22018;BME280;11173;51.050;7.108;2022-11-15T12:13:16;98621.63;;;11.92;57.93
22018;BME280;11173;51.050;7.108;2022-11-15T12:33:03;98581.66;;;12.36;58.59
22018;BME280;11173;51.050;7.108;2022-11-15T13:03:23;98523.97;;;12.82;58.22
22018;BME280;11173;51.050;7.108;2022-11-15T13:13:43;98503.31;;;13.07;57.45
22018;BME280;11173;51.050;7.108;2022-11-15T13:23:44;98488.25;;;13.05;57.25
22018;BME280;11173;51.050;7.108;2022-11-15T13:33:45;98496.47;;;12.99;57.58
22018;BME280;11173;51.050;7.108;2022-11-15T13:43:46;98471.31;;;13.08;56.44
22018;BME280;11173;51.050;7.108;2022-11-15T13:53:48;98466.47;;;13.27;58.01
22018;BME280;11173;51.050;7.108;2022-11-15T14:03:52;98451.25;;;13.38;57.35
22018;BME280;11173;51.050;7.108;2022-11-15T14:14:01;98423.00;;;13.36;55.80
22018;BME280;11173;51.050;7.108;2022-11-15T14:24:18;98421.13;;;13.32;56.73
22018;BME280;11173;51.050;7.108;2022-11-15T14:34:19;98393.34;;;13.20;53.28
22018;BME280;11173;51.050;7.108;2022-11-15T14:44:22;98379.22;;;13.14;56.34
22018;BME280;11173;51.050;7.108;2022-11-15T14:54:22;98364.63;;;13.01;55.91
22018;BME280;11173;51.050;7.108;2022-11-15T15:04:22;98359.06;;;12.91;56.84
22018;BME280;11173;51.050;7.108;2022-11-15T15:14:23;98350.03;;;12.69;54.47
22018;BME280;11173;51.050;7.108;2022-11-15T15:24:23;98317.78;;;12.49;54.47
22018;BME280;11173;51.050;7.108;2022-11-15T15:34:23;98303.50;;;12.29;55.63
22018;BME280;11173;51.050;7.108;2022-11-15T15:44:26;98291.84;;;11.93;56.61
22018;BME280;11173;51.050;7.108;2022-11-15T15:54:26;98280.50;;;11.69;57.52
22018;BME280;11173;51.050;7.108;2022-11-15T16:04:27;98270.88;;;11.61;58.10
22018;BME280;11173;51.050;7.108;2022-11-15T16:14:28;98271.34;;;11.69;58.24
22018;BME280;11173;51.050;7.108;2022-11-15T16:24:28;98265.91;;;11.65;58.18
22018;BME280;11173;51.050;7.108;2022-11-15T16:34:29;98243.91;;;11.67;58.36
22018;BME280;11173;51.050;7.108;2022-11-15T16:44:29;98249.53;;;11.77;58.28
22018;BME280;11173;51.050;7.108;2022-11-15T16:54:29;98255.44;;;11.88;58.19
22018;BME280;11173;51.050;7.108;2022-11-15T17:04:30;98247.69;;;11.92;57.85
22018;BME280;11173;51.050;7.108;2022-11-15T17:14:32;98237.63;;;12.04;57.21
22018;BME280;11173;51.050;7.108;2022-11-15T17:24:33;98232.97;;;12.10;57.50
22018;BME280;11173;51.050;7.108;2022-11-15T17:34:33;98242.25;;;12.16;57.89
22018;BME280;11173;51.050;7.108;2022-11-15T17:44:34;98236.69;;;12.16;58.11
22018;BME280;11173;51.050;7.108;2022-11-15T17:54:34;98242.25;;;12.16;58.40
22018;BME280;11173;51.050;7.108;2022-11-15T18:04:34;98232.19;;;12.19;58.87
22018;BME280;11173;51.050;7.108;2022-11-15T18:14:34;98232.19;;;12.19;59.25
22018;BME280;11173;51.050;7.108;2022-11-15T18:24:35;98214.19;;;12.01;61.09
22018;BME280;11173;51.050;7.108;2022-11-15T18:34:37;98201.94;;;11.89;61.22
22018;BME280;11173;51.050;7.108;2022-11-15T18:44:38;98189.69;;;11.78;61.89
22018;BME280;11173;51.050;7.108;2022-11-15T18:54:38;98190.94;;;11.67;62.56
22018;BME280;11173;51.050;7.108;2022-11-15T19:04:38;98176.34;;;11.54;62.95
22018;BME280;11173;51.050;7.108;2022-11-15T19:14:39;98167.16;;;11.35;65.48
22018;BME280;11173;51.050;7.108;2022-11-15T19:24:39;98163.75;;;11.31;63.89
22018;BME280;11173;51.050;7.108;2022-11-15T19:34:39;98152.56;;;11.22;64.90
22018;BME280;11173;51.050;7.108;2022-11-15T19:44:40;98155.53;;;11.18;64.86
22018;BME280;11173;51.050;7.108;2022-11-15T19:54:41;98143.25;;;11.06;67.00
22018;BME280;11173;51.050;7.108;2022-11-15T20:04:41;98142.94;;;11.04;66.07
22018;BME280;11173;51.050;7.108;2022-11-15T20:14:41;98130.06;;;10.98;67.40
22018;BME280;11173;51.050;7.108;2022-11-15T20:24:41;98122.34;;;11.02;65.88
22018;BME280;11173;51.050;7.108;2022-11-15T20:34:42;98118.28;;;10.93;70.05
22018;BME280;11173;51.050;7.108;2022-11-15T20:44:42;98119.53;;;10.92;68.36
22018;BME280;11173;51.050;7.108;2022-11-15T20:54:42;98112.41;;;10.91;68.21
22018;BME280;11173;51.050;7.108;2022-11-15T21:04:42;98101.56;;;10.93;66.49
22018;BME280;11173;51.050;7.108;2022-11-15T21:14:43;98100.63;;;10.87;69.73
22018;BME280;11173;51.050;7.108;2022-11-15T21:24:44;98091.50;;;10.87;70.77
22018;BME280;11173;51.050;7.108;2022-11-15T21:34:44;98068.13;;;10.75;72.28
22018;BME280;11173;51.050;7.108;2022-11-15T21:44:44;98062.84;;;10.77;71.94
22018;BME280;11173;51.050;7.108;2022-11-15T21:54:44;98048.94;;;10.77;71.13
22018;BME280;11173;51.050;7.108;2022-11-15T22:04:45;98037.03;;;10.77;71.17
22018;BME280;11173;51.050;7.108;2022-11-15T22:14:45;98022.75;;;10.65;72.66
22018;BME280;11173;51.050;7.108;2022-11-15T22:24:45;98010.53;;;10.63;72.78
22018;BME280;11173;51.050;7.108;2022-11-15T22:34:46;98001.72;;;10.64;72.96
22018;BME280;11173;51.050;7.108;2022-11-15T22:44:46;97992.88;;;10.66;71.51
22018;BME280;11173;51.050;7.108;2022-11-15T22:54:46;97989.97;;;10.69;70.68
22018;BME280;11173;51.050;7.108;2022-11-15T23:04:47;97972.81;;;10.71;71.91
22018;BME280;11173;51.050;7.108;2022-11-15T23:14:47;97964.44;;;10.71;71.87
22018;BME280;11173;51.050;7.108;2022-11-15T23:24:47;97966.59;;;10.67;73.16
22018;BME280;11173;51.050;7.108;2022-11-15T23:34:48;97957.66;;;10.72;71.09
22018;BME280;11173;51.050;7.108;2022-11-15T23:44:48;97953.31;;;10.71;72.54
22018;BME280;11173;51.050;7.108;2022-11-15T23:54:55;97945.56;;;10.75;71.23
